createdAt,value
2023-03-25T00:00:50.222Z,2.77
2023-03-25T00:05:58.042Z,5.67
2023-03-25T00:11:08.515Z,2.67
2023-03-25T00:16:13.909Z,2.00
2023-03-25T00:21:19.415Z,4.03
2023-03-25T00:26:24.682Z,6.47
2023-03-25T00:31:30.098Z,6.03
2023-03-25T00:36:37.192Z,2.63
2023-03-25T00:41:43.637Z,2.57
2023-03-25T00:46:48.933Z,3.10
2023-03-25T00:51:54.409Z,2.53
2023-03-25T00:56:59.725Z,3.03
2023-03-25T01:02:07.254Z,2.67
2023-03-25T01:07:14.912Z,2.33
2023-03-25T01:12:22.412Z,5.30
2023-03-25T01:17:27.749Z,6.10
2023-03-25T01:22:33.809Z,8.37
2023-03-25T01:27:39.804Z,3.13
2023-03-25T01:32:45.688Z,3.17
2023-03-25T01:37:52.725Z,4.70
2023-03-25T01:42:58.097Z,2.60
2023-03-25T01:48:07.653Z,3.13
2023-03-25T01:53:13.195Z,2.80
2023-03-25T01:58:20.566Z,2.57
2023-03-25T02:03:26.550Z,3.13
2023-03-25T02:08:39.973Z,3.00
2023-03-25T02:13:45.777Z,2.90
2023-03-25T02:18:57.013Z,3.77
2023-03-25T02:24:17.429Z,3.40
2023-03-25T02:29:33.610Z,3.17
2023-03-25T02:35:12.030Z,3.07
2023-03-25T02:40:35.318Z,3.40
2023-03-25T02:45:43.653Z,3.27
2023-03-25T02:50:54.364Z,3.77
2023-03-25T02:56:02.788Z,2.60
2023-03-25T03:01:10.250Z,3.10
2023-03-25T03:06:20.440Z,2.63
2023-03-25T03:11:31.482Z,3.23
2023-03-25T03:16:57.629Z,3.23
2023-03-25T03:22:22.516Z,3.57
2023-03-25T03:27:54.866Z,2.93
2023-03-25T03:33:03.510Z,2.83
2023-03-25T03:38:16.806Z,3.00
2023-03-25T03:43:27.709Z,6.20
2023-03-25T03:48:35.997Z,10.73
2023-03-25T03:53:47.241Z,4.00
2023-03-25T03:58:56.979Z,5.43
2023-03-25T04:04:10.734Z,4.77
2023-03-25T04:09:23.669Z,4.10
2023-03-25T04:14:29.563Z,4.23
2023-03-25T04:19:35.136Z,5.67
2023-03-25T04:24:41.841Z,6.00
2023-03-25T04:29:48.223Z,7.53
2023-03-25T04:34:55.614Z,8.23
2023-03-25T04:40:01.380Z,6.60
2023-03-25T04:45:07.783Z,7.03
2023-03-25T04:50:19.096Z,4.50
2023-03-25T04:55:26.038Z,3.43
2023-03-25T05:00:31.604Z,5.27
2023-03-25T05:05:38.642Z,4.20
2023-03-25T05:10:45.212Z,3.17
2023-03-25T05:15:50.973Z,4.53
2023-03-25T05:20:57.017Z,3.60
2023-03-25T05:26:03.609Z,4.03
2023-03-25T05:31:11.651Z,3.70
2023-03-25T05:36:17.877Z,2.90
2023-03-25T05:41:25.600Z,3.87
2023-03-25T05:46:31.160Z,3.60
2023-03-25T05:51:38.264Z,4.87
2023-03-25T05:56:43.959Z,3.77
2023-03-25T06:01:50.186Z,5.63
2023-03-25T06:06:55.879Z,4.83
2023-03-25T06:12:02.118Z,5.60
2023-03-25T06:17:07.515Z,4.77
2023-03-25T06:22:13.592Z,4.27
2023-03-25T06:27:20.215Z,4.00
2023-03-25T06:32:27.388Z,6.17
2023-03-25T06:37:32.864Z,4.70
2023-03-25T06:42:39.257Z,3.87
2023-03-25T06:47:44.759Z,3.80
2023-03-25T06:52:50.247Z,3.10
2023-03-25T06:57:58.695Z,3.73
2023-03-25T07:03:04.316Z,2.80
2023-03-25T07:08:09.775Z,3.13
2023-03-25T07:13:15.052Z,2.70
2023-03-25T07:18:20.378Z,2.23
2023-03-25T07:23:25.685Z,3.37
2023-03-25T07:28:32.900Z,1.80
2023-03-25T07:33:38.870Z,2.50
2023-03-25T07:38:44.863Z,2.67
2023-03-25T07:43:50.459Z,2.93
2023-03-25T07:48:56.469Z,2.43
2023-03-25T07:54:37.477Z,3.20
2023-03-25T08:00:01.176Z,3.20
2023-03-25T08:05:07.352Z,3.07
2023-03-25T08:10:14.544Z,2.60
2023-03-25T08:15:20.947Z,2.07
2023-03-25T08:20:26.645Z,3.13
2023-03-25T08:25:32.851Z,2.57
2023-03-25T08:30:39.276Z,3.00
2023-03-25T08:35:45.066Z,3.03
2023-03-25T08:40:55.836Z,3.90
2023-03-25T08:46:01.523Z,3.70
2023-03-25T08:51:07.418Z,1.97
2023-03-25T08:56:13.021Z,2.07
2023-03-25T09:01:18.455Z,1.90
2023-03-25T09:06:25.224Z,1.60
2023-03-25T09:11:36.761Z,2.10
2023-03-25T09:22:39.584Z,1.80
2023-03-25T09:27:45.579Z,2.13
2023-03-25T09:32:51.347Z,1.70
2023-03-25T09:37:57.332Z,2.53
2023-03-25T09:43:08.945Z,2.83
2023-03-25T09:48:38.633Z,1.60
2023-03-25T09:53:52.758Z,1.93
2023-03-25T09:59:10.903Z,1.80
2023-03-25T10:04:47.448Z,2.33
2023-03-25T10:10:03.148Z,1.90
2023-03-25T10:15:11.750Z,2.00
2023-03-25T10:20:43.334Z,2.07
2023-03-25T10:26:03.847Z,2.27
2023-03-25T10:31:19.204Z,2.17
2023-03-25T10:36:42.834Z,2.27
2023-03-25T10:42:12.064Z,1.83
2023-03-25T10:47:21.556Z,2.00
2023-03-25T10:52:27.230Z,1.63
2023-03-25T10:57:35.991Z,1.43
2023-03-25T11:02:52.842Z,1.30
2023-03-25T11:08:18.115Z,1.57
2023-03-25T11:13:15.573Z,1.77
2023-03-25T11:18:29.835Z,1.13
2023-03-25T11:23:37.895Z,1.43
2023-03-25T11:28:49.045Z,1.83
2023-03-25T11:39:56.643Z,1.77
2023-03-25T11:45:04.070Z,1.70
2023-03-25T11:50:28.787Z,1.20
2023-03-25T11:55:39.869Z,1.03
2023-03-25T12:00:54.102Z,1.40
2023-03-25T12:06:22.892Z,1.40
2023-03-25T12:11:46.931Z,1.57
2023-03-25T12:17:06.916Z,1.17
2023-03-25T12:22:23.823Z,1.10
2023-03-25T12:27:56.201Z,1.50
2023-03-25T12:33:11.905Z,1.37
2023-03-25T12:38:22.917Z,1.40
2023-03-25T12:43:37.225Z,1.10
2023-03-25T12:49:06.384Z,0.80
2023-03-25T12:54:17.529Z,0.80
2023-03-25T12:59:47.115Z,0.90
2023-03-25T13:05:20.552Z,0.70
2023-03-25T13:16:56.799Z,0.70
2023-03-25T13:22:29.691Z,0.63
2023-03-25T13:27:41.692Z,0.40
2023-03-25T13:32:51.769Z,0.40
2023-03-25T13:38:00.285Z,0.43
2023-03-25T13:43:23.765Z,0.37
2023-03-25T13:48:53.441Z,0.50
2023-03-25T13:54:25.821Z,0.50
2023-03-25T14:00:08.204Z,0.73
2023-03-25T14:05:44.225Z,0.70
2023-03-25T14:10:58.249Z,0.53
2023-03-25T14:16:06.738Z,0.53
2023-03-25T14:26:38.322Z,0.50
2023-03-25T14:32:13.289Z,0.40
2023-03-25T14:37:26.373Z,1.10
2023-03-25T14:42:43.577Z,0.53
2023-03-25T14:47:55.306Z,0.40
2023-03-25T14:53:25.497Z,0.83
2023-03-25T14:58:36.052Z,0.97
2023-03-25T15:09:10.358Z,1.00
2023-03-25T15:14:19.094Z,9.73
2023-03-25T15:19:31.334Z,5.90
2023-03-25T15:24:47.936Z,1.40
2023-03-25T15:30:23.879Z,1.33
2023-03-25T15:36:15.555Z,15.53
2023-03-25T15:41:50.222Z,9.30
2023-03-25T15:47:22.632Z,4.70
2023-03-25T15:53:09.140Z,1.27
2023-03-25T15:58:23.576Z,0.93
2023-03-25T16:03:31.801Z,1.07
2023-03-25T16:08:43.151Z,0.73
2023-03-25T16:13:51.254Z,2.03
2023-03-25T16:18:57.414Z,1.80
2023-03-25T16:24:08.164Z,1.73
2023-03-25T16:29:22.301Z,1.10
2023-03-25T16:34:34.360Z,0.93
2023-03-25T16:46:26.789Z,1.40
2023-03-25T16:51:40.540Z,0.90
2023-03-25T17:02:44.310Z,4.60
2023-03-25T17:13:36.217Z,5.67
2023-03-25T17:19:01.216Z,1.83
2023-03-25T17:24:16.088Z,1.13
2023-03-25T17:29:22.516Z,2.87
2023-03-25T17:34:48.448Z,5.07
2023-03-25T17:39:57.837Z,1.20
2023-03-25T17:45:03.344Z,1.30
2023-03-25T17:50:16.107Z,1.43
2023-03-25T17:55:35.301Z,1.33
2023-03-25T18:00:51.637Z,1.20
2023-03-25T18:17:38.881Z,1.10
2023-03-25T18:34:42.007Z,1.30
2023-03-25T18:39:55.639Z,0.73
2023-03-25T18:45:40.591Z,1.30
2023-03-25T18:51:04.567Z,1.27
2023-03-25T18:56:27.261Z,1.83
2023-03-25T19:19:25.732Z,1.60
2023-03-25T19:24:48.234Z,1.50
2023-03-25T19:42:11.599Z,0.87
2023-03-25T19:47:33.319Z,0.80
2023-03-25T19:52:57.796Z,1.53
2023-03-25T19:58:11.858Z,0.90
2023-03-25T20:14:40.965Z,0.63
2023-03-25T20:19:47.822Z,1.03
2023-03-25T20:24:55.150Z,0.83
2023-03-25T20:30:19.432Z,0.70
2023-03-25T20:35:26.382Z,0.83
2023-03-25T20:40:44.087Z,0.67
2023-03-25T20:45:44.476Z,1.00
2023-03-25T20:50:50.241Z,0.90
2023-03-25T20:55:56.991Z,1.03
2023-03-25T21:01:03.905Z,0.57
2023-03-25T21:06:22.987Z,0.57
2023-03-25T21:11:20.613Z,0.97
2023-03-25T21:16:28.054Z,0.90
2023-03-25T21:21:33.587Z,0.70
2023-03-25T21:26:39.200Z,1.30
2023-03-25T21:31:47.053Z,1.33
2023-03-25T21:36:56.557Z,0.90
2023-03-25T21:42:11.399Z,1.07
2023-03-25T21:47:12.367Z,0.90
2023-03-25T21:52:18.181Z,1.87
2023-03-25T21:57:23.825Z,1.70
2023-03-25T22:02:30.320Z,1.63
2023-03-25T22:07:36.184Z,2.83
2023-03-25T22:12:41.819Z,3.30
2023-03-25T22:17:47.423Z,2.63
2023-03-25T22:22:54.328Z,1.33
2023-03-25T22:28:02.178Z,0.90
2023-03-25T22:33:08.874Z,1.43
2023-03-25T22:38:16.890Z,1.27
2023-03-25T22:43:22.490Z,1.03
2023-03-25T22:48:29.150Z,1.50
2023-03-25T22:53:34.572Z,1.53
2023-03-25T22:58:41.154Z,1.33
2023-03-25T23:03:47.251Z,0.63
2023-03-25T23:08:54.953Z,1.60
2023-03-25T23:14:10.753Z,1.53
2023-03-25T23:19:16.515Z,1.57
2023-03-25T23:24:22.002Z,1.90
2023-03-25T23:29:29.607Z,1.00
2023-03-25T23:34:36.485Z,2.30
2023-03-25T23:39:43.600Z,2.27
2023-03-25T23:44:50.160Z,1.90
2023-03-25T23:50:04.991Z,1.60
2023-03-25T23:55:17.072Z,1.80
